Time;durP1;ratioP1;P1;durP2;ratioP2;P2;SDS_P1;SDS_P2;PMS_P1;PMS_P2;Temp;Humidity;BMP_temperature;BMP_pressure;BME280_temperature;BME280_humidity;BME280_pressure;Samples;Min_cycle;Max_cycle;Signal;HPM_P1;HPM_P2
2024/01/04 00:01:49;;;;;;;1.50;0.60;;;;;;;;;;5157551;27;20054;-57
2024/01/04 00:04:16;;;;;;;1.33;0.80;;;;;;;;;;5157426;27;20058;-56
2024/01/04 00:06:44;;;;;;;2.67;1.10;;;;;;;;;;5157610;27;20051;-57
2024/01/04 00:09:12;;;;;;;2.58;1.15;;;;;;;;;;5157466;27;20054;-58
2024/01/04 00:11:39;;;;;;;1.77;0.90;;;;;;;;;;5157216;27;20399;-57
2024/01/04 00:14:08;;;;;;;2.80;1.00;;;;;;;;;;5156908;27;20054;-57
2024/01/04 00:16:36;;;;;;;2.72;1.00;;;;;;;;;;5157343;27;20055;-57
2024/01/04 00:19:03;;;;;;;2.55;0.85;;;;;;;;;;5157415;27;20062;-56
2024/01/04 00:21:29;;;;;;;3.58;1.10;;;;;;;;;;5157203;27;20057;-56
2024/01/04 00:23:57;;;;;;;1.92;0.80;;;;;;;;;;5156668;27;20315;-56
2024/01/04 00:26:25;;;;;;;2.58;1.05;;;;;;;;;;5157249;27;20053;-56
2024/01/04 00:28:52;;;;;;;2.65;0.90;;;;;;;;;;5157140;27;20043;-57
2024/01/04 00:31:19;;;;;;;2.80;1.20;;;;;;;;;;5157035;27;20054;-56
2024/01/04 00:33:46;;;;;;;2.05;0.95;;;;;;;;;;5157364;27;20471;-57
2024/01/04 00:36:13;;;;;;;2.10;1.10;;;;;;;;;;5156865;27;20400;-57
2024/01/04 00:38:40;;;;;;;3.33;1.40;;;;;;;;;;5156958;27;20057;-56
2024/01/04 00:41:07;;;;;;;2.50;1.30;;;;;;;;;;5156759;27;20490;-57
2024/01/04 00:43:37;;;;;;;2.90;1.42;;;;;;;;;;5156633;27;20047;-57
2024/01/04 00:46:04;;;;;;;2.30;1.30;;;;;;;;;;5156715;27;20475;-57
2024/01/04 00:48:31;;;;;;;5.43;2.00;;;;;;;;;;5156402;27;20136;-57
2024/01/04 00:50:58;;;;;;;5.80;2.00;;;;;;;;;;5156097;27;20403;-57
2024/01/04 00:53:24;;;;;;;5.20;2.10;;;;;;;;;;5135578;27;20047;-57
2024/01/04 00:55:51;;;;;;;6.65;2.55;;;;;;;;;;5135108;27;20058;-57
2024/01/04 00:58:18;;;;;;;4.63;2.40;;;;;;;;;;5136126;27;20058;-57
2024/01/04 01:00:46;;;;;;;3.63;2.47;;;;;;;;;;5135607;27;20412;-57
2024/01/04 01:03:13;;;;;;;6.82;2.90;;;;;;;;;;5136006;27;20043;-57
2024/01/04 01:05:40;;;;;;;4.75;2.30;;;;;;;;;;5136100;27;20062;-57
2024/01/04 01:08:07;;;;;;;8.90;2.58;;;;;;;;;;5135490;27;20059;-57
2024/01/04 01:10:34;;;;;;;4.20;2.50;;;;;;;;;;5135341;27;20058;-56
2024/01/04 01:13:01;;;;;;;6.30;2.92;;;;;;;;;;5135445;27;20066;-56
2024/01/04 01:15:28;;;;;;;7.80;2.92;;;;;;;;;;5135463;27;20062;-57
2024/01/04 01:17:56;;;;;;;4.57;2.83;;;;;;;;;;5135881;27;20511;-57
2024/01/04 01:20:23;;;;;;;6.45;3.53;;;;;;;;;;5135174;27;20411;-57
2024/01/04 01:22:50;;;;;;;6.43;3.30;;;;;;;;;;5135746;27;20059;-57
2024/01/04 01:25:17;;;;;;;5.60;3.55;;;;;;;;;;5135658;27;20055;-57
2024/01/04 01:27:44;;;;;;;8.13;4.00;;;;;;;;;;5135643;27;20051;-57
2024/01/04 01:30:11;;;;;;;6.75;3.72;;;;;;;;;;5135653;27;20054;-57
2024/01/04 01:32:37;;;;;;;6.70;4.25;;;;;;;;;;5135595;27;20043;-57
2024/01/04 01:35:08;;;;;;;6.53;4.00;;;;;;;;;;5135599;27;20047;-57
2024/01/04 01:37:36;;;;;;;7.30;3.72;;;;;;;;;;5135406;27;20058;-55
2024/01/04 01:40:03;;;;;;;7.40;4.13;;;;;;;;;;5134990;27;20133;-56
2024/01/04 01:42:29;;;;;;;10.27;5.30;;;;;;;;;;5135439;27;20055;-57
2024/01/04 01:44:56;;;;;;;8.77;5.55;;;;;;;;;;5134883;27;20047;-57
2024/01/04 01:47:24;;;;;;;6.03;4.28;;;;;;;;;;5134792;27;20416;-57
2024/01/04 01:49:51;;;;;;;7.70;4.90;;;;;;;;;;5134752;27;20066;-57
2024/01/04 01:52:19;;;;;;;5.60;4.07;;;;;;;;;;5145783;27;20050;-57
2024/01/04 01:54:47;;;;;;;4.80;3.00;;;;;;;;;;5155624;27;20070;-57
2024/01/04 01:57:15;;;;;;;5.88;3.15;;;;;;;;;;5155406;27;20051;-56
2024/01/04 01:59:41;;;;;;;8.70;2.92;;;;;;;;;;5155086;27;20058;-57
2024/01/04 02:02:08;;;;;;;5.78;3.10;;;;;;;;;;5154809;27;20054;-57
2024/01/04 02:04:35;;;;;;;3.38;2.17;;;;;;;;;;5155481;27;20468;-57
2024/01/04 02:07:02;;;;;;;5.38;2.75;;;;;;;;;;5154980;27;20050;-57
2024/01/04 02:09:30;;;;;;;3.47;2.17;;;;;;;;;;5154807;27;20047;-57
2024/01/04 02:12:03;;;;;;;3.97;2.08;;;;;;;;;;5154859;27;20422;-57
2024/01/04 02:14:30;;;;;;;3.92;1.90;;;;;;;;;;5154691;27;20069;-56
2024/01/04 02:16:56;;;;;;;3.10;1.60;;;;;;;;;;5154859;27;20403;-55
2024/01/04 02:19:24;;;;;;;3.72;2.08;;;;;;;;;;5154439;27;20061;-58
2024/01/04 02:21:51;;;;;;;3.25;1.60;;;;;;;;;;5154928;27;20391;-56
2024/01/04 02:24:19;;;;;;;3.58;1.48;;;;;;;;;;5154678;27;20502;-55
2024/01/04 02:26:46;;;;;;;4.00;1.50;;;;;;;;;;5154508;27;20492;-57
2024/01/04 02:29:13;;;;;;;2.38;1.30;;;;;;;;;;5154971;27;20396;-57
2024/01/04 02:31:40;;;;;;;1.60;1.00;;;;;;;;;;5154619;27;20054;-57
2024/01/04 02:34:06;;;;;;;1.60;1.20;;;;;;;;;;5154461;27;20047;-57
2024/01/04 02:36:33;;;;;;;2.65;1.30;;;;;;;;;;5154510;27;20054;-57
2024/01/04 02:39:00;;;;;;;3.70;1.20;;;;;;;;;;5154265;27;20077;-57
2024/01/04 02:41:28;;;;;;;2.97;1.60;;;;;;;;;;5154530;27;20050;-56
2024/01/04 02:43:55;;;;;;;3.05;1.60;;;;;;;;;;5154400;27;20042;-58
2024/01/04 02:46:22;;;;;;;3.47;1.80;;;;;;;;;;5154140;27;20046;-55
2024/01/04 02:48:48;;;;;;;2.80;1.60;;;;;;;;;;5154370;27;20514;-55
2024/01/04 02:51:15;;;;;;;2.95;2.00;;;;;;;;;;5154094;27;20051;-55
2024/01/04 02:53:42;;;;;;;3.33;2.20;;;;;;;;;;5153855;27;20054;-57
2024/01/04 02:56:09;;;;;;;4.20;3.13;;;;;;;;;;5154252;27;20061;-54
2024/01/04 02:58:37;;;;;;;4.53;2.70;;;;;;;;;;5153708;27;20062;-56
2024/01/04 03:01:04;;;;;;;4.70;2.70;;;;;;;;;;5154025;27;20054;-55
2024/01/04 03:03:31;;;;;;;5.35;3.13;;;;;;;;;;5154038;27;20050;-55
2024/01/04 03:05:58;;;;;;;4.43;2.88;;;;;;;;;;5154345;27;20058;-57
2024/01/04 03:08:25;;;;;;;4.65;2.60;;;;;;;;;;5154129;27;20054;-56
2024/01/04 03:10:52;;;;;;;4.93;2.92;;;;;;;;;;5154135;27;20487;-57
2024/01/04 03:13:18;;;;;;;5.13;2.95;;;;;;;;;;5154009;27;20413;-56
2024/01/04 03:15:46;;;;;;;4.05;2.97;;;;;;;;;;5154106;27;20498;-58
2024/01/04 03:18:13;;;;;;;4.18;2.67;;;;;;;;;;5154121;27;20054;-57
2024/01/04 03:20:40;;;;;;;6.57;3.30;;;;;;;;;;5157338;27;20073;-57
2024/01/04 03:23:07;;;;;;;5.82;3.50;;;;;;;;;;5158666;27;20380;-57
2024/01/04 03:25:33;;;;;;;4.63;3.47;;;;;;;;;;5157947;27;20058;-57
2024/01/04 03:28:00;;;;;;;5.90;3.92;;;;;;;;;;5158294;27;20395;-57
2024/01/04 03:30:27;;;;;;;7.72;3.97;;;;;;;;;;5158136;27;20058;-57
2024/01/04 03:32:55;;;;;;;8.07;4.60;;;;;;;;;;5156111;27;20047;-57
2024/01/04 03:35:22;;;;;;;6.50;4.30;;;;;;;;;;5137928;27;20404;-57
2024/01/04 03:37:49;;;;;;;9.30;5.00;;;;;;;;;;5137366;27;20051;-57
2024/01/04 03:40:15;;;;;;;6.75;4.97;;;;;;;;;;5137333;27;20057;-55
2024/01/04 03:42:42;;;;;;;7.05;5.10;;;;;;;;;;5137762;27;20396;-57
2024/01/04 03:45:09;;;;;;;5.45;4.78;;;;;;;;;;5137613;27;20051;-57
2024/01/04 03:47:36;;;;;;;10.52;5.28;;;;;;;;;;5137382;27;20055;-57
2024/01/04 03:50:05;;;;;;;8.30;5.40;;;;;;;;;;5149543;27;20084;-57
2024/01/04 03:52:32;;;;;;;7.50;4.60;;;;;;;;;;5157018;27;20414;-56
2024/01/04 03:54:59;;;;;;;8.35;4.72;;;;;;;;;;5157343;27;20057;-56
2024/01/04 03:57:26;;;;;;;8.95;5.68;;;;;;;;;;5157888;27;20407;-56
2024/01/04 03:59:53;;;;;;;7.88;5.18;;;;;;;;;;5158247;27;20054;-56
2024/01/04 04:02:20;;;;;;;6.07;5.10;;;;;;;;;;5157836;27;20051;-57
2024/01/04 04:04:47;;;;;;;7.00;5.03;;;;;;;;;;5157221;27;20050;-55
2024/01/04 04:07:15;;;;;;;8.45;4.78;;;;;;;;;;5157576;27;20054;-57
2024/01/04 04:09:42;;;;;;;6.85;4.82;;;;;;;;;;5157638;27;20054;-57
2024/01/04 04:12:08;;;;;;;5.65;4.15;;;;;;;;;;5157293;27;20394;-56
2024/01/04 04:14:35;;;;;;;5.75;3.60;;;;;;;;;;5157650;27;20047;-57
2024/01/04 04:17:02;;;;;;;7.43;3.97;;;;;;;;;;5157343;27;20054;-57
2024/01/04 04:19:29;;;;;;;7.25;3.45;;;;;;;;;;5157517;27;20054;-55
2024/01/04 04:21:55;;;;;;;3.35;2.40;;;;;;;;;;5157484;27;20058;-57
2024/01/04 04:24:24;;;;;;;6.60;2.28;;;;;;;;;;5156744;27;20042;-57
2024/01/04 04:26:51;;;;;;;4.97;2.20;;;;;;;;;;5157164;27;20046;-57
2024/01/04 04:29:17;;;;;;;3.25;1.83;;;;;;;;;;5156603;27;20057;-55
2024/01/04 04:31:44;;;;;;;3.17;1.50;;;;;;;;;;5156584;27;20051;-56
2024/01/04 04:34:11;;;;;;;6.50;1.95;;;;;;;;;;5156449;27;20480;-56
2024/01/04 04:36:40;;;;;;;4.15;1.60;;;;;;;;;;5157070;27;20055;-56
2024/01/04 04:39:08;;;;;;;4.70;1.70;;;;;;;;;;5156957;27;20062;-55
2024/01/04 04:41:36;;;;;;;4.25;1.55;;;;;;;;;;5157078;27;20073;-54
2024/01/04 04:44:03;;;;;;;3.58;1.70;;;;;;;;;;5157159;27;20051;-54
2024/01/04 04:46:30;;;;;;;2.25;1.50;;;;;;;;;;5156374;27;20047;-56
2024/01/04 04:48:57;;;;;;;4.25;1.40;;;;;;;;;;5156359;27;20047;-57
2024/01/04 04:51:25;;;;;;;4.72;1.85;;;;;;;;;;5156359;27;20411;-56
2024/01/04 04:53:52;;;;;;;4.07;1.70;;;;;;;;;;5156322;27;20051;-56
2024/01/04 04:56:19;;;;;;;2.95;1.25;;;;;;;;;;5156442;27;20055;-55
2024/01/04 04:58:47;;;;;;;2.47;1.60;;;;;;;;;;5156155;27;20051;-55
2024/01/04 05:01:14;;;;;;;4.05;1.50;;;;;;;;;;5156259;27;20051;-55
2024/01/04 05:03:40;;;;;;;3.40;1.48;;;;;;;;;;5156430;27;20050;-54
2024/01/04 05:06:08;;;;;;;3.55;1.55;;;;;;;;;;5155914;27;20092;-53
2024/01/04 05:08:35;;;;;;;3.25;1.40;;;;;;;;;;5156381;27;20062;-56
2024/01/04 05:11:01;;;;;;;3.85;1.42;;;;;;;;;;5156463;27;20057;-55
2024/01/04 05:13:28;;;;;;;4.07;1.60;;;;;;;;;;5155862;27;20061;-55
2024/01/04 05:15:56;;;;;;;3.72;1.70;;;;;;;;;;5155845;27;20047;-56
2024/01/04 05:18:23;;;;;;;3.47;1.63;;;;;;;;;;5156429;27;20054;-56
2024/01/04 05:20:50;;;;;;;3.20;2.00;;;;;;;;;;5156197;27;20051;-55
2024/01/04 05:23:17;;;;;;;3.85;1.50;;;;;;;;;;5156173;27;20055;-53
2024/01/04 05:25:44;;;;;;;4.80;1.63;;;;;;;;;;5155700;27;20050;-56
2024/01/04 05:28:11;;;;;;;2.88;1.90;;;;;;;;;;5155957;27;20046;-55
2024/01/04 05:30:38;;;;;;;4.38;1.92;;;;;;;;;;5156081;27;20061;-56
2024/01/04 05:33:08;;;;;;;4.18;1.40;;;;;;;;;;5156071;27;20077;-56
2024/01/04 05:35:34;;;;;;;4.22;1.95;;;;;;;;;;5155790;27;20368;-55
2024/01/04 05:38:01;;;;;;;3.08;1.55;;;;;;;;;;5155717;27;20046;-56
2024/01/04 05:40:28;;;;;;;4.15;2.10;;;;;;;;;;5155317;27;20054;-55
2024/01/04 05:42:57;;;;;;;3.47;1.90;;;;;;;;;;5155414;27;20054;-56
2024/01/04 05:45:24;;;;;;;4.80;2.95;;;;;;;;;;5155598;27;20043;-55
2024/01/04 05:47:51;;;;;;;5.15;1.95;;;;;;;;;;5155797;27;20047;-56
2024/01/04 05:50:19;;;;;;;5.85;2.95;;;;;;;;;;5155451;27;20062;-56
2024/01/04 05:52:46;;;;;;;5.50;2.75;;;;;;;;;;5127674;27;20527;-55
2024/01/04 05:55:12;;;;;;;6.70;3.28;;;;;;;;;;5134747;27;20400;-55
2024/01/04 05:57:39;;;;;;;9.20;4.88;;;;;;;;;;5135010;27;20047;-57
2024/01/04 06:00:07;;;;;;;5.13;2.60;;;;;;;;;;5134627;27;20062;-57
2024/01/04 06:02:33;;;;;;;4.70;2.15;;;;;;;;;;5134657;27;20055;-56
2024/01/04 06:05:00;;;;;;;5.05;3.08;;;;;;;;;;5134976;27;20065;-57
2024/01/04 06:07:28;;;;;;;3.42;2.20;;;;;;;;;;5134626;27;20051;-56
2024/01/04 06:09:55;;;;;;;6.13;2.70;;;;;;;;;;5134657;27;20528;-56
2024/01/04 06:12:22;;;;;;;5.15;2.25;;;;;;;;;;5134812;27;20047;-56
2024/01/04 06:14:49;;;;;;;3.28;1.48;;;;;;;;;;5134733;27;20393;-57
2024/01/04 06:17:16;;;;;;;3.38;1.98;;;;;;;;;;5134420;27;20053;-56
2024/01/04 06:19:43;;;;;;;4.05;1.90;;;;;;;;;;5134834;27;20051;-56
2024/01/04 06:22:10;;;;;;;2.80;1.58;;;;;;;;;;5134130;27;20384;-56
2024/01/04 06:24:38;;;;;;;6.50;3.42;;;;;;;;;;5133831;27;20051;-57
2024/01/04 06:27:05;;;;;;;3.53;1.65;;;;;;;;;;5134241;27;20055;-56
2024/01/04 06:29:32;;;;;;;3.55;1.50;;;;;;;;;;5134082;27;20055;-55
2024/01/04 06:31:59;;;;;;;2.85;1.15;;;;;;;;;;5134442;27;20058;-55
2024/01/04 06:34:26;;;;;;;2.53;1.50;;;;;;;;;;5134547;27;20062;-56
2024/01/04 06:36:53;;;;;;;4.25;1.77;;;;;;;;;;5134116;27;20059;-56
2024/01/04 06:39:20;;;;;;;3.15;1.30;;;;;;;;;;5134104;27;20070;-57
2024/01/04 06:41:48;;;;;;;3.53;1.80;;;;;;;;;;5134055;27;20051;-57
2024/01/04 06:44:15;;;;;;;5.40;1.90;;;;;;;;;;5133044;27;20055;-57
2024/01/04 06:46:42;;;;;;;4.25;2.33;;;;;;;;;;5133331;27;20058;-57
2024/01/04 06:49:08;;;;;;;3.92;2.25;;;;;;;;;;5133215;27;20054;-57
2024/01/04 06:51:35;;;;;;;3.70;1.92;;;;;;;;;;5138167;27;20051;-56
2024/01/04 06:54:02;;;;;;;4.05;1.80;;;;;;;;;;5153482;27;20050;-55
2024/01/04 06:56:29;;;;;;;3.28;2.00;;;;;;;;;;5153048;27;20058;-56
2024/01/04 06:58:57;;;;;;;3.78;2.30;;;;;;;;;;5154014;27;20392;-56
2024/01/04 07:01:24;;;;;;;4.78;2.53;;;;;;;;;;5153993;27;20054;-57
2024/01/04 07:03:50;;;;;;;4.28;2.22;;;;;;;;;;5153874;27;20055;-56
2024/01/04 07:06:17;;;;;;;3.70;2.42;;;;;;;;;;5153671;27;20047;-57
2024/01/04 07:08:44;;;;;;;5.30;2.40;;;;;;;;;;5153941;27;20054;-56
2024/01/04 07:11:11;;;;;;;3.80;2.33;;;;;;;;;;5153945;27;20054;-57
2024/01/04 07:13:37;;;;;;;4.60;2.47;;;;;;;;;;5154356;27;20051;-56
2024/01/04 07:16:06;;;;;;;3.67;2.08;;;;;;;;;;5153964;27;20038;-57
2024/01/04 07:18:33;;;;;;;3.20;1.80;;;;;;;;;;5154034;27;20065;-56
2024/01/04 07:21:00;;;;;;;2.63;1.90;;;;;;;;;;5153852;27;20055;-56
2024/01/04 07:23:26;;;;;;;5.97;3.00;;;;;;;;;;5153772;27;20080;-55
2024/01/04 07:25:55;;;;;;;4.50;3.60;;;;;;;;;;5154224;27;20054;-56
2024/01/04 07:28:21;;;;;;;3.47;2.33;;;;;;;;;;5154087;27;20077;-54
2024/01/04 07:30:48;;;;;;;6.03;2.83;;;;;;;;;;5154096;27;20051;-56
2024/01/04 07:33:17;;;;;;;4.57;2.20;;;;;;;;;;5154012;27;20058;-56
2024/01/04 07:35:43;;;;;;;3.78;2.88;;;;;;;;;;5153857;27;20391;-56
2024/01/04 07:38:10;;;;;;;4.85;2.80;;;;;;;;;;5153982;27;20058;-56
2024/01/04 07:40:37;;;;;;;5.40;3.47;;;;;;;;;;5153848;27;20150;-57
2024/01/04 07:43:04;;;;;;;6.20;4.00;;;;;;;;;;5153595;27;20046;-56
2024/01/04 07:45:31;;;;;;;6.88;5.20;;;;;;;;;;5153496;27;20069;-57
2024/01/04 07:47:58;;;;;;;8.30;6.20;;;;;;;;;;5153423;27;20054;-57
2024/01/04 07:50:26;;;;;;;9.68;6.13;;;;;;;;;;5153473;27;20054;-56
2024/01/04 07:52:53;;;;;;;9.48;6.45;;;;;;;;;;5153564;27;20085;-57
2024/01/04 07:55:20;;;;;;;6.95;5.35;;;;;;;;;;5153251;27;20062;-56
2024/01/04 07:57:47;;;;;;;6.93;5.43;;;;;;;;;;5154020;27;20054;-56
2024/01/04 08:00:14;;;;;;;8.00;5.43;;;;;;;;;;5153806;27;20522;-55
2024/01/04 08:02:41;;;;;;;6.88;5.88;;;;;;;;;;5153762;27;20046;-57
2024/01/04 08:05:08;;;;;;;8.77;6.20;;;;;;;;;;5154552;27;20061;-57
2024/01/04 08:07:36;;;;;;;10.20;6.75;;;;;;;;;;5157786;27;20061;-56
2024/01/04 08:10:03;;;;;;;13.07;7.40;;;;;;;;;;5157355;27;20053;-57
2024/01/04 08:12:30;;;;;;;9.48;6.90;;;;;;;;;;5157680;27;20061;-57
2024/01/04 08:14:57;;;;;;;8.63;7.05;;;;;;;;;;5157704;27;20058;-57
2024/01/04 08:17:24;;;;;;;10.73;7.78;;;;;;;;;;5157306;27;20047;-56
2024/01/04 08:19:51;;;;;;;9.88;7.45;;;;;;;;;;5157489;27;20057;-56
2024/01/04 08:22:17;;;;;;;9.73;7.55;;;;;;;;;;5157449;27;20054;-56
2024/01/04 08:24:45;;;;;;;9.35;6.88;;;;;;;;;;5156793;27;20054;-57
2024/01/04 08:27:12;;;;;;;7.30;6.45;;;;;;;;;;5157285;27;20054;-56
2024/01/04 08:29:39;;;;;;;8.95;6.45;;;;;;;;;;5156680;27;20442;-56
2024/01/04 08:32:07;;;;;;;8.52;6.50;;;;;;;;;;5157568;27;20046;-56
2024/01/04 08:34:33;;;;;;;6.97;5.65;;;;;;;;;;5157133;27;20046;-57
2024/01/04 08:37:00;;;;;;;10.32;6.47;;;;;;;;;;5157106;27;20054;-56
2024/01/04 08:39:28;;;;;;;7.65;6.15;;;;;;;;;;5156820;27;20059;-57
2024/01/04 08:41:56;;;;;;;11.57;7.10;;;;;;;;;;5156614;27;20051;-57
2024/01/04 08:44:23;;;;;;;9.15;8.18;;;;;;;;;;5156772;27;20066;-57
2024/01/04 08:46:50;;;;;;;11.88;7.63;;;;;;;;;;5156840;27;20046;-56
2024/01/04 08:49:17;;;;;;;10.98;7.85;;;;;;;;;;5156720;27;20056;-57
2024/01/04 08:51:44;;;;;;;8.32;6.57;;;;;;;;;;5156283;27;20503;-57
2024/01/04 08:54:10;;;;;;;7.57;6.05;;;;;;;;;;5156703;27;20090;-57
2024/01/04 08:56:37;;;;;;;8.07;5.80;;;;;;;;;;5156688;27;20050;-57
2024/01/04 08:59:05;;;;;;;7.25;5.07;;;;;;;;;;5156525;27;20506;-57
2024/01/04 09:01:32;;;;;;;6.90;4.90;;;;;;;;;;5156385;27;20057;-56
2024/01/04 09:03:59;;;;;;;7.63;5.10;;;;;;;;;;5156690;27;20056;-58
2024/01/04 09:06:26;;;;;;;5.15;3.80;;;;;;;;;;5155973;27;20050;-57
2024/01/04 09:08:52;;;;;;;5.45;3.50;;;;;;;;;;5156344;27;20066;-57
2024/01/04 09:11:19;;;;;;;3.95;2.53;;;;;;;;;;5156267;27;20047;-58
2024/01/04 09:13:47;;;;;;;3.08;1.90;;;;;;;;;;5155962;27;20051;-56
2024/01/04 09:16:15;;;;;;;3.53;2.00;;;;;;;;;;5155437;27;20050;-57
2024/01/04 09:18:42;;;;;;;2.20;1.40;;;;;;;;;;5155757;27;20057;-56
2024/01/04 09:21:09;;;;;;;4.03;1.92;;;;;;;;;;5156206;27;20050;-56
2024/01/04 09:23:35;;;;;;;2.35;1.30;;;;;;;;;;5156247;27;20051;-57
2024/01/04 09:26:08;;;;;;;3.33;1.40;;;;;;;;;;5155767;27;20054;-56
2024/01/04 09:28:35;;;;;;;3.53;2.10;;;;;;;;;;5155928;27;20061;-57
2024/01/04 09:31:02;;;;;;;3.67;2.67;;;;;;;;;;5155988;27;20050;-56
2024/01/04 09:33:31;;;;;;;4.03;2.78;;;;;;;;;;5156080;27;20055;-56
2024/01/04 09:35:57;;;;;;;6.40;3.47;;;;;;;;;;5155552;27;20380;-57
2024/01/04 09:38:25;;;;;;;5.20;3.50;;;;;;;;;;5155447;27;20051;-57
2024/01/04 09:40:52;;;;;;;5.50;3.80;;;;;;;;;;5155961;27;20061;-55
2024/01/04 09:43:20;;;;;;;5.05;3.85;;;;;;;;;;5155833;27;20074;-57
2024/01/04 09:45:47;;;;;;;5.05;4.35;;;;;;;;;;5155485;27;20061;-57
2024/01/04 09:48:16;;;;;;;4.70;4.15;;;;;;;;;;5155993;27;20047;-56
2024/01/04 09:50:45;;;;;;;6.97;4.90;;;;;;;;;;5155452;27;20051;-57
2024/01/04 09:53:12;;;;;;;5.60;4.15;;;;;;;;;;5155079;27;20411;-55
2024/01/04 09:55:40;;;;;;;5.78;4.93;;;;;;;;;;5155256;27;20054;-56
2024/01/04 09:58:09;;;;;;;5.32;3.47;;;;;;;;;;5154685;27;20047;-56
2024/01/04 10:00:36;;;;;;;5.32;3.67;;;;;;;;;;5154635;27;20051;-57
2024/01/04 10:03:04;;;;;;;4.60;3.20;;;;;;;;;;5155053;27;20050;-56
2024/01/04 10:05:32;;;;;;;5.03;3.83;;;;;;;;;;5155263;27;20403;-57
2024/01/04 10:08:05;;;;;;;7.43;4.30;;;;;;;;;;5154951;27;20046;-56
2024/01/04 10:10:36;;;;;;;5.32;4.47;;;;;;;;;;5155268;27;20055;-56
2024/01/04 10:13:04;;;;;;;7.22;5.15;;;;;;;;;;5154581;27;20051;-57
2024/01/04 10:15:31;;;;;;;7.90;5.35;;;;;;;;;;5154780;27;20058;-56
2024/01/04 10:17:58;;;;;;;7.45;6.28;;;;;;;;;;5154357;27;20488;-55
2024/01/04 10:20:25;;;;;;;8.35;6.45;;;;;;;;;;5155031;27;20055;-56
2024/01/04 10:22:54;;;;;;;7.65;6.80;;;;;;;;;;5155034;27;20050;-56
2024/01/04 10:25:23;;;;;;;7.65;6.20;;;;;;;;;;5155208;27;20077;-55
2024/01/04 10:27:56;;;;;;;9.15;7.07;;;;;;;;;;5155172;27;20050;-56
2024/01/04 10:30:22;;;;;;;8.52;7.38;;;;;;;;;;5154284;27;20491;-57
2024/01/04 10:32:49;;;;;;;8.90;6.97;;;;;;;;;;5155231;27;20054;-55
2024/01/04 10:35:16;;;;;;;9.45;7.40;;;;;;;;;;5154660;27;20479;-56
2024/01/04 10:37:44;;;;;;;9.30;7.97;;;;;;;;;;5154893;27;20444;-56
2024/01/04 10:40:11;;;;;;;9.10;7.30;;;;;;;;;;5154449;27;20054;-55
2024/01/04 10:42:40;;;;;;;7.65;6.82;;;;;;;;;;5154669;27;20054;-56
2024/01/04 10:45:09;;;;;;;8.13;5.57;;;;;;;;;;5154728;27;20055;-55
2024/01/04 10:47:40;;;;;;;6.43;5.22;;;;;;;;;;5154557;27;20425;-56
2024/01/04 10:50:11;;;;;;;7.35;5.40;;;;;;;;;;5154602;27;20046;-56
2024/01/04 10:52:39;;;;;;;5.90;5.30;;;;;;;;;;5154005;27;20054;-56
2024/01/04 10:55:07;;;;;;;8.85;5.53;;;;;;;;;;5154580;27;20055;-57
2024/01/04 10:57:36;;;;;;;6.97;4.40;;;;;;;;;;5154334;27;20047;-56
2024/01/04 11:00:07;;;;;;;8.02;4.93;;;;;;;;;;5154165;27;20058;-54
2024/01/04 11:02:35;;;;;;;6.63;4.25;;;;;;;;;;5154397;27;20058;-57
2024/01/04 11:05:03;;;;;;;6.80;4.28;;;;;;;;;;5153949;27;20051;-56
2024/01/04 11:07:30;;;;;;;4.78;3.30;;;;;;;;;;5153722;27;20047;-56
2024/01/04 11:09:57;;;;;;;5.63;3.30;;;;;;;;;;5154102;27;20407;-55
2024/01/04 11:12:25;;;;;;;4.65;3.08;;;;;;;;;;5154130;27;20055;-56
2024/01/04 11:14:52;;;;;;;4.47;3.00;;;;;;;;;;5154215;27;20054;-55
2024/01/04 11:17:36;;;;;;;4.38;3.05;;;;;;;;;;5154273;27;20047;-55
2024/01/04 11:20:14;;;;;;;4.47;3.25;;;;;;;;;;5154248;27;20055;-57
2024/01/04 11:22:57;;;;;;;4.68;3.42;;;;;;;;;;5154132;27;20058;-55
2024/01/04 11:25:30;;;;;;;5.68;4.45;;;;;;;;;;5154184;27;20062;-56
2024/01/04 11:27:58;;;;;;;6.85;4.40;;;;;;;;;;5153458;27;20055;-56
2024/01/04 11:30:25;;;;;;;5.00;4.50;;;;;;;;;;5153402;27;20054;-55
2024/01/04 11:32:53;;;;;;;6.35;5.05;;;;;;;;;;5154397;27;20050;-56
2024/01/04 11:35:20;;;;;;;6.53;4.20;;;;;;;;;;5154023;27;20051;-54
2024/01/04 11:37:51;;;;;;;6.10;4.28;;;;;;;;;;5154006;27;20051;-56
2024/01/04 11:40:25;;;;;;;6.82;4.50;;;;;;;;;;5155193;27;20051;-54
2024/01/04 11:42:52;;;;;;;10.18;6.15;;;;;;;;;;5158385;27;20464;-56
2024/01/04 11:45:19;;;;;;;5.45;4.95;;;;;;;;;;5157358;27;20046;-56
2024/01/04 11:47:46;;;;;;;6.53;4.03;;;;;;;;;;5157456;27;20038;-56
2024/01/04 11:50:15;;;;;;;5.07;4.57;;;;;;;;;;5157668;27;20051;-55
2024/01/04 11:52:42;;;;;;;6.30;4.68;;;;;;;;;;5157648;27;20496;-57
2024/01/04 11:55:09;;;;;;;5.07;4.10;;;;;;;;;;5157834;27;20051;-53
2024/01/04 11:57:36;;;;;;;5.13;4.20;;;;;;;;;;5157832;27;20521;-55
2024/01/04 12:00:12;;;;;;;4.97;4.22;;;;;;;;;;5157745;27;20057;-56
2024/01/04 12:02:40;;;;;;;7.00;4.55;;;;;;;;;;5157899;27;20053;-56
2024/01/04 12:05:07;;;;;;;6.43;4.10;;;;;;;;;;5157772;27;20050;-56
2024/01/04 12:07:36;;;;;;;4.40;4.00;;;;;;;;;;5157284;27;20054;-57
2024/01/04 12:10:03;;;;;;;4.20;3.53;;;;;;;;;;5157454;27;20054;-57
2024/01/04 12:12:30;;;;;;;5.50;4.57;;;;;;;;;;5157438;27;21003;-56
2024/01/04 12:14:58;;;;;;;5.75;3.80;;;;;;;;;;5157284;27;20047;-57
2024/01/04 12:17:24;;;;;;;4.28;3.88;;;;;;;;;;5157405;27;20042;-56
2024/01/04 12:19:51;;;;;;;6.45;3.30;;;;;;;;;;5157312;27;20051;-57
2024/01/04 12:22:18;;;;;;;5.18;3.30;;;;;;;;;;5157350;27;20050;-57
2024/01/04 12:24:47;;;;;;;6.93;3.95;;;;;;;;;;5156869;27;20415;-56
2024/01/04 12:27:14;;;;;;;5.43;3.90;;;;;;;;;;5157238;27;20055;-57
2024/01/04 12:29:42;;;;;;;3.83;3.45;;;;;;;;;;5156656;27;20065;-57
2024/01/04 12:32:09;;;;;;;4.43;2.97;;;;;;;;;;5157062;27;20069;-57
2024/01/04 12:34:36;;;;;;;4.65;3.67;;;;;;;;;;5157247;27;20062;-57
2024/01/04 12:37:04;;;;;;;6.25;3.65;;;;;;;;;;5156923;27;20058;-57
2024/01/04 12:39:31;;;;;;;5.40;2.88;;;;;;;;;;5156910;27;20061;-56
2024/01/04 12:42:00;;;;;;;3.55;3.00;;;;;;;;;;5156746;27;20050;-57
2024/01/04 12:44:26;;;;;;;4.65;3.03;;;;;;;;;;5156645;27;20081;-57
2024/01/04 12:47:03;;;;;;;3.30;2.38;;;;;;;;;;5156592;27;20061;-55
2024/01/04 12:49:30;;;;;;;4.28;2.30;;;;;;;;;;5156438;27;20043;-57
2024/01/04 12:51:57;;;;;;;5.70;3.22;;;;;;;;;;5155004;27;20065;-57
2024/01/04 12:54:23;;;;;;;6.10;3.00;;;;;;;;;;5156114;27;20051;-57
2024/01/04 12:56:54;;;;;;;4.65;2.33;;;;;;;;;;5155958;27;20054;-57
2024/01/04 12:59:22;;;;;;;3.53;2.20;;;;;;;;;;5156484;27;20051;-56
2024/01/04 13:01:49;;;;;;;3.75;2.60;;;;;;;;;;5156667;27;20047;-57
2024/01/04 13:04:16;;;;;;;3.70;2.90;;;;;;;;;;5156593;27;20051;-57
2024/01/04 13:06:43;;;;;;;3.60;2.33;;;;;;;;;;5156455;27;20057;-57
2024/01/04 13:09:14;;;;;;;3.40;2.80;;;;;;;;;;5156531;27;20411;-57
2024/01/04 13:11:41;;;;;;;3.83;2.85;;;;;;;;;;5156461;27;20057;-57
2024/01/04 13:14:08;;;;;;;4.00;2.60;;;;;;;;;;5156362;27;20058;-57
2024/01/04 13:16:36;;;;;;;3.30;2.80;;;;;;;;;;5156153;27;20051;-57
2024/01/04 13:19:03;;;;;;;6.07;3.13;;;;;;;;;;5156231;27;20120;-57
2024/01/04 13:21:30;;;;;;;3.53;3.13;;;;;;;;;;5156012;27;20055;-57
2024/01/04 13:23:57;;;;;;;5.15;3.50;;;;;;;;;;5155695;27;20073;-57
2024/01/04 13:26:23;;;;;;;5.85;3.95;;;;;;;;;;5155590;27;20336;-58
2024/01/04 13:28:50;;;;;;;5.55;4.13;;;;;;;;;;5155534;27;20483;-57
2024/01/04 13:31:17;;;;;;;6.88;4.53;;;;;;;;;;5155767;27;20051;-56
2024/01/04 13:33:45;;;;;;;8.13;4.57;;;;;;;;;;5155853;27;20062;-57
2024/01/04 13:36:12;;;;;;;7.38;4.72;;;;;;;;;;5156170;27;20047;-57
2024/01/04 13:38:39;;;;;;;8.20;4.70;;;;;;;;;;5155557;27;20051;-57
2024/01/04 13:41:05;;;;;;;7.03;4.70;;;;;;;;;;5155328;27;20061;-58
2024/01/04 13:43:32;;;;;;;5.25;4.45;;;;;;;;;;5155766;27;20051;-58
2024/01/04 13:46:00;;;;;;;7.47;4.97;;;;;;;;;;5155577;27;20055;-57
2024/01/04 13:48:30;;;;;;;6.13;4.97;;;;;;;;;;5155384;27;20046;-58
2024/01/04 13:50:58;;;;;;;7.28;5.28;;;;;;;;;;5155285;27;20490;-58
2024/01/04 13:53:25;;;;;;;6.97;4.40;;;;;;;;;;5155414;27;20063;-57
2024/01/04 13:55:52;;;;;;;7.50;4.68;;;;;;;;;;5155069;27;20054;-58
2024/01/04 13:58:19;;;;;;;6.38;4.60;;;;;;;;;;5155466;27;20043;-58
2024/01/04 14:00:47;;;;;;;5.03;4.00;;;;;;;;;;5154987;27;20057;-58
2024/01/04 14:03:14;;;;;;;5.93;4.03;;;;;;;;;;5154852;27;20051;-58
2024/01/04 14:05:41;;;;;;;5.75;4.32;;;;;;;;;;5147424;27;20062;-57
2024/01/04 14:08:09;;;;;;;5.28;4.45;;;;;;;;;;5152152;27;20050;-58
2024/01/04 14:10:36;;;;;;;5.30;4.80;;;;;;;;;;5156740;27;20495;-58
2024/01/04 14:13:03;;;;;;;8.35;6.22;;;;;;;;;;5161282;27;20050;-58
2024/01/04 14:15:29;;;;;;;7.53;6.00;;;;;;;;;;5150009;27;20072;-58
2024/01/04 14:17:56;;;;;;;8.02;6.10;;;;;;;;;;5151578;27;20050;-58
2024/01/04 14:20:26;;;;;;;8.95;6.30;;;;;;;;;;5150622;27;20051;-58
2024/01/04 14:22:51;;;;;;;;;;;;;;;;;;5153433;27;20050;-58
2024/01/04 14:25:20;;;;;;;7.28;5.40;;;;;;;;;;5154656;27;19929;-58
2024/01/04 14:27:46;;;;;;;7.82;3.92;;;;;;;;;;5155247;27;20051;-58
2024/01/04 14:30:14;;;;;;;5.80;4.88;;;;;;;;;;5143068;27;20059;-60
2024/01/04 14:32:40;;;;;;;5.18;3.30;;;;;;;;;;5149019;27;20053;-58
2024/01/04 14:35:08;;;;;;;4.85;3.50;;;;;;;;;;5157711;27;20061;-58
2024/01/04 14:37:37;;;;;;;6.20;3.33;;;;;;;;;;5174152;27;20471;-58
2024/01/04 14:40:04;;;;;;;4.90;3.10;;;;;;;;;;5173521;27;20410;-58
2024/01/04 14:42:34;;;;;;;4.68;2.55;;;;;;;;;;5175681;27;20094;-59
2024/01/04 14:45:01;;;;;;;4.35;2.78;;;;;;;;;;5173863;27;20050;-58